Brownstown, PA (17508)

9:10 AM EDT on July 04, 2015 (GMT -0400)
Lititz Run, near Millport Conservancy | | Change Station
CLOSE
Current Station
Personal Weather Station
Location: Lititz, PA
Elevation: 410 ft
Nearby Weather Stations

Elev 410 ft 40.14 °N, 76.26 °W | Updated 8 minutes ago

Light Rain
Light Rain Mist
67.3 °F
Feels Like 67.3 °F
N
0.0
Wind Variable Wind from NNW
Gusts 4.0 mph

Today
High -- | Low -- °F
--% Chance of Precip.
Yesterday
High -- | Low -- °F
Precip. -- in
5:40 AM 8:37 PM
Waning Gibbous, 92% visible
Pressure 29.93 in
Visibility 2.0 miles
Clouds Scattered Clouds 1900 ft
Scattered Clouds 2600 ft
Overcast 6000 ft
Dew Point 67 °F
Humidity 98%
Rainfall 0.07 in
Snow Depth Not available.
UV 1 out of 12
Pollen .50 out of 12
Air Quality Not available.
Flu Activity Not available.
METAR KLNS 041253Z 05005KT 2SM -RA BR SCT019 SCT026 OVC060 19/19 A2993 RMK AO2 RAB1154 SLP134 P0005 T01940189

More Conditions Fewer Conditions

Pressure 29.93 in
Visibility 2.0 miles
Clouds Scattered Clouds 1900 ft
Scattered Clouds 2600 ft
Overcast 6000 ft
Dew Point 67 °F
Humidity 98%
Rainfall 0.07 in
Snow Depth Not available.
UV 1 out of 12
Pollen .50 out of 12
Air Quality Not available.
Flu Activity Not available.
METAR KLNS 041253Z 05005KT 2SM -RA BR SCT019 SCT026 OVC060 19/19 A2993 RMK AO2 RAB1154 SLP134 P0005 T01940189

More Conditions Fewer Conditions

Nowcast | as of 8:58 am EDT on July 4, 2015

A soaking rain will taper off from west to east by early afternoon. Some of the rain will be on the heavy side. The area of rain is moving northeast at 25 mph. Temperatures will remain in the 60s this morning.

×

10-Day Weather Forecast

×

Almanac

Astronomy

Jul. 04, 2015 Rise Set
Actual Time
Civil Twilight
Nautical Twilight
Astronomical Twilight
Moon
Length of Visible Light
Length of Day
Tomorrow will be .
, % of the Moon is Illuminated

Today's Extremes

State Highs State Lows

Community

WunderPhotos

Upload Photos

1,834,956 photos uploaded!

WunderBlogs® & News

Nearby

Air Quality

  Air Quality AQ Index Pollutant
Not available.

Snow Depth

Station Depth Elevation

Earthquake Activity

City Distance Mag. Time & Date
Minimum magnitude displayed is 2.5.

Coastal Water Temperatures

Place Temperature

Stations

Nearby Weather Stations

Station Location Temp. Windchill Dew Point Humidity Wind Precip. Elev Updated Type